Time;durP1;ratioP1;P1;durP2;ratioP2;P2;SDS_P1;SDS_P2;PMS_P1;PMS_P2;Temp;Humidity;BMP_temperature;BMP_pressure;BME280_temperature;BME280_humidity;BME280_pressure;Samples;Min_cycle;Max_cycle;Signal;HPM_P1;HPM_P2
2022/02/02 00:04:26;;;;;;;20.60;9.60;;;;;;;2.81;55.07;92948.25;5018046;28;20927;-78
2022/02/02 00:09:26;;;;;;;23.07;9.67;;;;;;;2.71;55.19;92964.16;5017316;28;20158;-78
2022/02/02 00:16:58;;;;;;;12.10;7.05;;;;;;;2.42;55.24;92917.84;5021564;28;20086;-78
2022/02/02 00:22:03;;;;;;;30.70;14.60;;;;;;;2.50;55.62;92953.94;5016743;28;20031;-77
2022/02/02 00:25:14;;;;;;;31.27;18.48;;;;;;;2.23;55.85;92917.03;5028141;28;20069;-78
2022/02/02 00:27:20;;;;;;;24.08;12.65;;;;;;;2.21;56.07;92934.91;5019467;28;20493;-77
2022/02/02 00:29:51;;;;;;;21.63;12.50;;;;;;;2.11;56.34;92935.03;5023441;28;20041;-77
2022/02/02 00:34:45;;;;;;;27.90;14.52;;;;;;;2.07;57.25;92944.53;5025557;28;20059;-78
2022/02/02 00:37:11;;;;;;;23.45;12.43;;;;;;;1.92;57.21;92915.84;5027153;28;20529;-78
2022/02/02 00:39:37;;;;;;;15.88;8.57;;;;;;;1.80;57.22;92897.88;5026566;28;20020;-77
2022/02/02 00:42:03;;;;;;;12.20;6.78;;;;;;;1.63;56.96;92869.50;5026139;28;20494;-78
2022/02/02 00:44:28;;;;;;;16.70;8.40;;;;;;;2.01;57.10;92940.41;5010335;28;20040;-78
2022/02/02 00:46:55;;;;;;;13.15;8.90;;;;;;;2.05;56.79;92946.66;5022417;28;20045;-78
2022/02/02 00:49:21;;;;;;;14.95;8.50;;;;;;;1.60;56.98;92893.66;5015265;28;20029;-78
2022/02/02 00:51:47;;;;;;;14.82;7.00;;;;;;;1.95;57.10;92946.78;5022386;28;20412;-78
2022/02/02 00:54:19;;;;;;;12.45;7.47;;;;;;;1.89;57.18;92926.91;5016821;28;20047;-77
2022/02/02 00:56:45;;;;;;;13.88;7.43;;;;;;;1.99;57.27;92953.03;5042814;28;20481;-78
2022/02/02 00:59:10;;;;;;;12.10;6.40;;;;;;;1.80;57.26;92916.25;5016943;28;20353;-78
2022/02/02 01:01:36;;;;;;;10.10;5.82;;;;;;;1.75;57.16;92910.28;5018974;28;20537;-77
2022/02/02 01:04:02;;;;;;;10.27;5.95;;;;;;;1.65;57.38;92911.94;5021861;28;20029;-78
2022/02/02 01:06:31;;;;;;;10.68;5.30;;;;;;;1.84;57.33;92919.06;5013444;28;20407;-78
2022/02/02 01:20:00;;;;;;;8.52;5.82;;;;;;;1.58;57.72;92895.00;5026718;28;20048;-77
2022/02/02 01:27:42;;;;;;;9.88;5.55;;;;;;;1.74;58.08;92909.50;5017666;28;20040;-77
2022/02/02 01:27:51;;;;;;;12.95;6.22;;;;;;;1.61;57.76;92876.88;5030024;28;20464;-77
2022/02/02 01:30:16;;;;;;;9.32;6.30;;;;;;;1.81;57.43;92898.69;5026989;28;20045;-78
2022/02/02 01:32:42;;;;;;;9.52;6.65;;;;;;;1.49;57.76;92850.28;5023923;28;20060;-78
2022/02/02 01:35:14;;;;;;;11.35;6.68;;;;;;;1.63;57.64;92859.03;5024805;28;20037;-78
2022/02/02 01:37:39;;;;;;;12.32;7.05;;;;;;;1.85;57.52;92889.19;5015947;28;20088;-78
2022/02/02 01:40:13;;;;;;;9.45;6.75;;;;;;;1.88;56.94;92863.19;5028045;28;20390;-78
2022/02/02 01:42:47;;;;;;;11.02;5.20;;;;;;;1.74;57.31;92872.00;5030956;28;20041;-78
2022/02/02 01:45:19;;;;;;;9.68;6.10;;;;;;;1.93;57.00;92871.00;5019387;28;20037;-78
2022/02/02 01:48:01;;;;;;;12.98;5.47;;;;;;;1.96;56.61;92869.69;5016460;28;20029;-78
2022/02/02 01:50:39;;;;;;;12.77;7.32;;;;;;;1.72;57.31;92867.03;5023476;28;20040;-78
2022/02/02 01:55:50;;;;;;;14.88;7.38;;;;;;;1.32;57.65;92821.16;5029061;28;21036;-77
2022/02/02 01:59:03;;;;;;;18.95;9.60;;;;;;;1.43;57.72;92843.53;5017697;28;20028;-78
2022/02/02 02:01:01;;;;;;;;;;;;;;;1.38;57.83;92848.81;5016768;28;20041;-78
2022/02/02 02:03:26;;;;;;;13.32;8.00;;;;;;;0.82;58.13;92762.25;5016714;28;20268;-77
2022/02/02 02:05:52;;;;;;;13.63;7.93;;;;;;;1.07;58.34;92805.72;5018826;28;20040;-77
2022/02/02 02:08:17;;;;;;;15.57;7.90;;;;;;;1.24;58.01;92817.28;5015766;28;20060;-77
2022/02/02 02:10:43;;;;;;;19.02;9.10;;;;;;;1.43;57.98;92819.94;5023357;28;20515;-78
2022/02/02 02:13:14;;;;;;;12.82;7.45;;;;;;;1.35;58.30;92801.47;5016039;28;20438;-77
2022/02/02 02:15:42;;;;;;;14.10;7.80;;;;;;;1.52;57.95;92815.66;5025571;28;20529;-77
2022/02/02 02:18:07;;;;;;;17.30;7.53;;;;;;;1.33;57.84;92814.03;5023921;28;20037;-78
2022/02/02 02:20:33;;;;;;;11.52;7.03;;;;;;;1.06;57.95;92804.13;5020833;28;20037;-78
2022/02/02 02:22:58;;;;;;;12.38;6.32;;;;;;;0.93;58.55;92821.31;5019312;28;20096;-78
2022/02/02 02:25:27;;;;;;;13.27;7.03;;;;;;;1.08;59.11;92825.59;5028393;28;20030;-77
2022/02/02 02:27:54;;;;;;;17.40;7.45;;;;;;;1.04;58.64;92833.22;5027079;28;20021;-78
2022/02/02 02:30:59;;;;;;;12.18;6.75;;;;;;;0.94;59.52;92835.16;5030424;28;20029;-77
2022/02/02 02:57:39;;;;;;;14.15;8.23;;;;;;;1.27;57.92;92821.22;5020985;28;20115;-77
2022/02/02 03:00:24;;;;;;;8.48;6.25;;;;;;;1.15;57.83;92792.00;5024918;28;20044;-77
2022/02/02 03:30:33;;;;;;;10.07;6.53;;;;;;;0.14;59.00;92770.19;5026728;28;20119;-78
2022/02/02 03:34:33;;;;;;;12.73;6.47;;;;;;;0.17;59.50;92795.00;5017403;28;20044;-77
2022/02/02 03:50:33;;;;;;;11.95;6.15;;;;;;;-0.29;60.45;92766.59;4975483;28;20045;-78
2022/02/02 04:00:27;;;;;;;12.13;5.68;;;;;;;-0.32;59.96;92803.69;5026534;28;20056;-77
2022/02/02 04:05:42;;;;;;;11.77;5.88;;;;;;;-0.63;60.06;92784.00;5022557;28;20086;-77
2022/02/02 04:10:54;;;;;;;9.60;5.78;;;;;;;-0.29;60.15;92810.22;5020591;28;20048;-77
2022/02/02 04:37:56;;;;;;;15.00;7.30;;;;;;;-0.59;60.26;92805.91;5020619;28;20619;-76
2022/02/02 05:07:26;;;;;;;12.85;7.03;;;;;;;-0.57;61.45;92820.25;5023306;28;20107;-78
2022/02/02 05:20:52;;;;;;;15.50;7.70;;;;;;;-0.32;60.52;92816.75;5030080;28;20154;-77
2022/02/02 05:52:51;;;;;;;19.88;10.98;;;;;;;-1.06;63.94;92841.03;5024620;28;20535;-77
2022/02/02 05:55:16;;;;;;;16.83;9.93;;;;;;;-0.88;64.21;92854.59;5021480;28;21051;-77
2022/02/02 05:57:45;;;;;;;13.73;8.68;;;;;;;-1.04;64.47;92861.66;5028524;28;20025;-78
2022/02/02 06:00:12;;;;;;;14.80;10.48;;;;;;;-1.22;64.91;92841.34;5023143;28;20041;-77
2022/02/02 06:02:44;;;;;;;14.65;9.07;;;;;;;-1.14;65.20;92866.91;5022670;28;20056;-77
2022/02/02 06:05:10;;;;;;;13.90;8.10;;;;;;;-1.30;66.15;92829.63;5017961;28;20065;-78
2022/02/02 06:07:38;;;;;;;19.25;8.18;;;;;;;-0.86;65.30;92871.53;5016448;28;20577;-77
2022/02/02 06:10:06;;;;;;;17.35;7.55;;;;;;;-0.91;65.64;92871.53;5027646;28;20902;-77
2022/02/02 06:12:32;;;;;;;12.25;7.07;;;;;;;-0.76;65.19;92878.56;5019233;28;20525;-78
2022/02/02 06:15:00;;;;;;;12.73;8.23;;;;;;;-0.59;65.05;92892.88;5024603;28;20358;-77
2022/02/02 06:17:28;;;;;;;11.57;7.32;;;;;;;-0.62;64.42;92884.78;5012847;28;20675;-77
2022/02/02 06:19:55;;;;;;;20.92;9.60;;;;;;;-0.83;64.84;92872.84;5030135;28;20056;-77
2022/02/02 06:22:22;;;;;;;25.08;10.82;;;;;;;-1.05;64.94;92853.06;5020857;28;20025;-77
2022/02/02 06:24:52;;;;;;;16.20;8.38;;;;;;;-0.91;65.38;92899.47;5024963;28;20025;-77
2022/02/02 06:27:25;;;;;;;17.90;9.25;;;;;;;-1.20;65.85;92858.28;5022744;28;20045;-76
2022/02/02 06:30:05;;;;;;;16.38;10.18;;;;;;;-0.90;66.00;92888.00;5017580;28;20041;-77
2022/02/02 06:32:54;;;;;;;10.82;7.25;;;;;;;-0.76;64.85;92904.66;5021494;28;20040;-77
2022/02/02 06:35:26;;;;;;;15.05;8.65;;;;;;;-0.87;65.15;92908.38;5019684;28;20064;-77
2022/02/02 06:37:52;;;;;;;17.52;8.38;;;;;;;-1.01;65.00;92885.41;5013850;28;20057;-77
2022/02/02 06:40:19;;;;;;;21.00;10.02;;;;;;;-0.84;65.28;92889.56;5029467;28;20140;-77
2022/02/02 06:42:44;;;;;;;17.60;9.90;;;;;;;-0.82;64.46;92905.72;5025049;28;20608;-77
2022/02/02 06:45:11;;;;;;;24.65;10.73;;;;;;;-0.82;64.95;92906.50;5021828;28;20436;-78
2022/02/02 06:47:39;;;;;;;25.20;13.15;;;;;;;-0.93;64.89;92883.31;5015625;28;21364;-78
2022/02/02 06:53:27;;;;;;;19.13;12.02;;;;;;;-0.98;64.54;92890.13;5020509;28;20519;-77
2022/02/02 06:56:31;;;;;;;16.75;8.88;;;;;;;-0.82;64.72;92908.31;5026368;28;20032;-79
2022/02/02 06:59:25;;;;;;;15.95;9.45;;;;;;;-0.70;64.74;92914.06;5023185;28;20037;-77
2022/02/02 07:13:13;;;;;;;19.65;11.32;;;;;;;-0.78;64.13;92914.59;5014021;28;20111;-78
2022/02/02 07:20:54;;;;;;;18.35;8.27;;;;;;;-1.09;64.25;92916.47;5020030;28;20033;-77
2022/02/02 07:32:03;;;;;;;15.68;9.43;;;;;;;-1.30;66.40;92918.31;5028915;28;20035;-77
2022/02/02 07:34:31;;;;;;;23.60;11.50;;;;;;;-1.63;66.34;92875.28;5010386;28;20041;-76
2022/02/02 07:37:01;;;;;;;28.80;12.80;;;;;;;-1.30;66.79;92909.69;5017704;28;20049;-78
2022/02/02 07:39:32;;;;;;;16.42;9.02;;;;;;;-1.61;65.96;92854.16;5022072;28;20477;-77
2022/02/02 07:42:03;;;;;;;16.52;9.93;;;;;;;-1.29;64.87;92885.97;5020368;28;20033;-77
2022/02/02 07:44:35;;;;;;;14.82;8.95;;;;;;;-1.11;64.37;92893.25;5010209;28;20125;-77
2022/02/02 07:47:06;;;;;;;16.45;9.25;;;;;;;-1.17;63.78;92896.13;5027771;28;20045;-78
2022/02/02 07:49:36;;;;;;;11.93;7.80;;;;;;;-0.90;63.49;92929.75;5022503;28;20033;-77
2022/02/02 07:52:03;;;;;;;17.13;8.23;;;;;;;-1.19;63.49;92878.13;5011774;28;20017;-77
2022/02/02 07:54:40;;;;;;;20.25;13.13;;;;;;;-0.76;63.79;92909.88;5020443;28;20387;-77
2022/02/02 07:57:11;;;;;;;12.98;9.07;;;;;;;-0.68;62.00;92917.19;5015915;28;20038;-77
2022/02/02 08:02:21;;;;;;;13.20;7.68;;;;;;;-0.46;60.61;92920.25;5022947;28;20094;-77
2022/02/02 08:04:46;;;;;;;11.70;8.40;;;;;;;-0.60;60.19;92914.03;5024565;28;20043;-77
2022/02/02 08:07:20;;;;;;;16.58;8.00;;;;;;;-1.07;60.56;92868.19;5022835;28;20029;-78
2022/02/02 08:09:54;;;;;;;11.95;6.10;;;;;;;-0.77;60.72;92906.50;5019815;28;20490;-77
2022/02/02 08:12:20;;;;;;;11.32;6.65;;;;;;;-0.99;60.85;92870.28;5019006;28;20656;-78
2022/02/02 08:14:54;;;;;;;16.35;8.07;;;;;;;-0.75;60.16;92898.41;5019826;28;20037;-77
2022/02/02 08:17:20;;;;;;;11.57;6.47;;;;;;;-0.72;60.25;92900.47;5022489;28;20044;-78
2022/02/02 08:19:45;;;;;;;14.23;6.05;;;;;;;-0.46;59.60;92904.59;5024680;28;20037;-77
2022/02/02 08:22:11;;;;;;;11.18;6.32;;;;;;;-0.62;59.23;92869.13;5021105;28;20512;-77
2022/02/02 08:24:36;;;;;;;12.80;7.10;;;;;;;-0.43;59.07;92893.59;5018212;28;20421;-77
2022/02/02 08:27:02;;;;;;;11.38;6.28;;;;;;;-0.47;59.41;92892.56;5025888;28;20041;-78
2022/02/02 08:29:27;;;;;;;13.65;7.30;;;;;;;-0.36;58.67;92888.88;5017812;28;20374;-78
2022/02/02 08:31:53;;;;;;;12.25;6.40;;;;;;;-0.20;57.98;92903.44;5026202;28;20636;-77
2022/02/02 08:34:19;;;;;;;14.38;7.35;;;;;;;-0.20;58.63;92900.84;5017795;28;20021;-78
2022/02/02 08:36:50;;;;;;;16.20;8.45;;;;;;;-0.13;57.78;92883.00;5023720;28;20020;-78
2022/02/02 08:42:02;;;;;;;10.32;6.88;;;;;;;-0.09;57.11;92910.19;5029268;28;20532;-77
2022/02/02 08:44:40;;;;;;;16.83;6.47;;;;;;;-0.20;56.92;92898.22;5020991;28;20044;-78
2022/02/02 08:47:07;;;;;;;9.82;6.53;;;;;;;0.03;57.86;92911.69;5030128;28;20524;-78
2022/02/02 08:49:38;;;;;;;10.27;5.28;;;;;;;0.16;58.22;92895.41;5027054;28;20408;-78
2022/02/02 08:52:04;;;;;;;12.55;7.28;;;;;;;0.42;57.08;92883.75;5024628;28;21039;-79
2022/02/02 08:54:58;;;;;;;17.58;7.43;;;;;;;0.35;56.10;92888.47;5021050;28;20175;-78
2022/02/02 08:59:57;;;;;;;8.77;4.82;;;;;;;0.31;55.73;92867.31;5026624;28;19963;-77
2022/02/02 09:02:27;;;;;;;10.75;5.90;;;;;;;0.57;54.46;92890.69;5027709;28;20045;-76
2022/02/02 09:07:39;;;;;;;11.88;7.70;;;;;;;0.29;54.10;92843.31;5023434;28;20165;-77
2022/02/02 09:10:12;;;;;;;10.40;6.80;;;;;;;0.82;54.07;92900.97;5023618;28;20523;-77
2022/02/02 09:22:05;;;;;;;20.35;9.82;;;;;;;1.57;52.65;92878.47;5026484;28;20064;-77
2022/02/02 09:23:57;;;;;;;14.02;7.38;;;;;;;1.38;52.13;92885.50;5019548;28;20240;-77
2022/02/02 09:34:18;;;;;;;18.20;8.05;;;;;;;1.92;51.57;92913.22;5023062;28;20473;-76
2022/02/02 09:36:45;;;;;;;13.55;7.82;;;;;;;2.05;51.05;92904.69;5026653;28;20086;-78
2022/02/02 09:39:18;;;;;;;14.95;8.57;;;;;;;1.85;50.69;92908.31;5024927;28;20579;-77
2022/02/02 09:41:47;;;;;;;12.32;6.32;;;;;;;1.42;49.85;92870.03;5026980;28;20394;-77
2022/02/02 09:44:17;;;;;;;13.75;6.95;;;;;;;1.76;50.42;92906.59;5019686;28;20060;-76
2022/02/02 09:46:52;;;;;;;11.10;6.82;;;;;;;1.63;50.58;92911.44;5020746;28;20081;-77
2022/02/02 09:49:30;;;;;;;16.95;7.85;;;;;;;1.39;50.25;92870.56;5018611;28;20029;-76
2022/02/02 09:52:17;;;;;;;9.25;6.88;;;;;;;1.18;50.91;92828.13;5017748;28;20423;-77
2022/02/02 09:57:43;;;;;;;11.63;5.97;;;;;;;1.50;50.33;92878.06;5011488;28;20045;-77
2022/02/02 10:06:09;;;;;;;8.15;4.85;;;;;;;1.84;49.08;92885.00;4947552;28;20047;-77
2022/02/02 10:14:31;;;;;;;11.25;5.22;;;;;;;1.74;49.57;92882.50;5023155;28;19991;-77
2022/02/02 10:16:57;;;;;;;9.10;5.55;;;;;;;1.68;49.65;92869.44;5010877;28;20106;-76
2022/02/02 10:19:32;;;;;;;9.15;5.10;;;;;;;1.55;48.79;92854.41;5027434;28;20036;-77
2022/02/02 10:21:58;;;;;;;11.07;5.88;;;;;;;1.32;49.65;92860.44;5026539;28;20029;-77
2022/02/02 10:24:43;;;;;;;11.88;5.30;;;;;;;1.23;49.76;92852.38;5017512;28;20048;-77
2022/02/02 10:27:21;;;;;;;15.15;5.82;;;;;;;1.51;49.56;92890.09;5023050;28;20071;-77
2022/02/02 10:29:46;;;;;;;13.75;5.78;;;;;;;1.60;49.68;92887.63;5025700;28;20452;-77
2022/02/02 10:32:12;;;;;;;9.93;5.88;;;;;;;1.69;49.03;92891.19;5023050;28;20208;-77
2022/02/02 10:34:41;;;;;;;13.02;6.38;;;;;;;1.60;49.38;92870.06;5017087;28;20448;-78
2022/02/02 10:37:26;;;;;;;14.77;6.05;;;;;;;1.59;49.94;92870.34;5030749;28;20035;-77
2022/02/02 10:39:52;;;;;;;9.57;5.75;;;;;;;1.51;49.35;92869.13;5040724;28;20052;-77
2022/02/02 10:42:41;;;;;;;11.55;5.85;;;;;;;1.64;49.41;92899.13;5023739;28;20045;-77
2022/02/02 10:45:29;;;;;;;9.40;5.70;;;;;;;1.78;48.90;92888.72;5025027;28;20523;-77
2022/02/02 10:48:12;;;;;;;14.75;7.55;;;;;;;1.60;49.23;92866.66;5024721;28;20151;-77
2022/02/02 10:50:48;;;;;;;10.90;5.25;;;;;;;1.28;48.44;92827.97;5026507;28;20033;-77
2022/02/02 10:53:29;;;;;;;9.90;5.63;;;;;;;1.53;48.98;92877.47;5014631;28;20037;-77
2022/02/02 10:56:19;;;;;;;9.75;5.60;;;;;;;1.48;48.69;92874.13;5020520;28;20070;-77
2022/02/02 11:06:39;;;;;;;16.17;7.40;;;;;;;0.93;49.72;92789.09;5015487;28;20052;-78
2022/02/02 11:09:07;;;;;;;14.02;8.23;;;;;;;1.33;49.58;92825.31;5019780;28;20053;-77
2022/02/02 11:11:34;;;;;;;13.73;8.60;;;;;;;1.22;49.39;92819.44;5020426;28;20136;-76
2022/02/02 11:14:06;;;;;;;13.80;6.85;;;;;;;1.37;49.77;92867.47;5018270;28;20037;-77
2022/02/02 11:16:34;;;;;;;10.02;5.68;;;;;;;1.47;49.48;92862.13;5025705;28;20238;-77
2022/02/02 11:19:02;;;;;;;11.95;6.30;;;;;;;1.45;49.36;92859.75;5029190;28;20049;-76
2022/02/02 11:21:34;;;;;;;11.00;5.32;;;;;;;1.35;49.21;92854.63;5023016;28;20038;-76
2022/02/02 11:24:13;;;;;;;11.80;6.00;;;;;;;0.97;50.11;92805.81;5021199;28;20433;-77
2022/02/02 11:26:56;;;;;;;9.73;6.30;;;;;;;1.43;49.90;92866.31;5020644;28;20037;-77
2022/02/02 11:29:37;;;;;;;12.70;5.60;;;;;;;1.20;50.04;92863.44;5017083;28;20041;-78
2022/02/02 11:32:11;;;;;;;11.60;6.30;;;;;;;1.43;50.17;92846.16;5016601;28;20047;-77
2022/02/02 11:34:40;;;;;;;11.48;6.57;;;;;;;1.37;50.05;92852.53;5021932;28;20263;-78
2022/02/02 11:37:07;;;;;;;17.63;6.93;;;;;;;0.47;50.17;92718.91;5019815;28;20102;-77
2022/02/02 11:39:46;;;;;;;17.83;6.55;;;;;;;1.17;49.95;92844.88;5012743;28;20046;-77
2022/02/02 11:42:42;;;;;;;13.50;7.05;;;;;;;1.27;50.11;92836.13;5024152;28;20135;-77
2022/02/02 11:46:02;;;;;;;12.15;6.68;;;;;;;1.38;50.16;92838.34;5017927;28;20041;-77
2022/02/02 11:48:51;;;;;;;12.48;7.22;;;;;;;1.33;50.03;92835.00;5005079;28;20045;-77
2022/02/02 11:51:36;;;;;;;13.18;6.47;;;;;;;1.30;50.29;92828.50;5020309;28;20509;-77
2022/02/02 11:54:03;;;;;;;17.20;7.50;;;;;;;1.39;49.98;92834.66;5025955;28;20045;-77
2022/02/02 11:56:30;;;;;;;12.48;6.28;;;;;;;1.50;49.59;92825.66;5019452;28;20035;-77
2022/02/02 11:58:56;;;;;;;10.68;6.30;;;;;;;1.29;49.36;92798.13;5020998;28;20037;-77
2022/02/02 12:01:42;;;;;;;15.73;7.18;;;;;;;1.61;50.45;92824.47;5017330;28;20034;-76
2022/02/02 12:04:23;;;;;;;13.88;6.95;;;;;;;1.68;49.29;92798.69;5018177;28;20028;-77
2022/02/02 12:09:36;;;;;;;18.80;8.85;;;;;;;1.66;48.97;92782.47;5015021;28;20565;-77
2022/02/02 12:46:03;;;;;;;17.50;6.75;;;;;;;2.23;47.79;92817.34;5017790;28;20657;-78
2022/02/02 12:48:16;;;;;;;11.75;5.82;;;;;;;2.00;48.51;92808.50;5008302;28;20600;-76
2022/02/02 12:50:28;;;;;;;10.27;6.68;;;;;;;2.05;48.79;92826.03;5007023;28;20064;-77
2022/02/02 12:56:15;;;;;;;13.68;6.68;;;;;;;2.29;47.74;92828.56;5019935;28;20186;-76
2022/02/02 12:58:39;;;;;;;13.43;6.88;;;;;;;2.22;47.84;92815.78;5011923;28;20442;-77
2022/02/02 13:01:09;;;;;;;13.63;6.82;;;;;;;2.32;47.60;92836.63;5017566;28;20559;-77
2022/02/02 13:03:37;;;;;;;16.80;7.70;;;;;;;2.35;47.88;92815.06;5023011;28;20037;-77
2022/02/02 13:06:03;;;;;;;10.57;6.05;;;;;;;2.51;47.44;92840.00;5010512;28;20440;-77
2022/02/02 13:08:28;;;;;;;9.02;6.25;;;;;;;2.24;47.20;92807.66;5012262;28;20042;-77
2022/02/02 13:10:56;;;;;;;14.25;7.07;;;;;;;2.30;47.82;92830.91;5015838;28;20048;-76
2022/02/02 13:13:25;;;;;;;12.90;7.10;;;;;;;2.11;48.05;92821.47;5013176;28;21079;-77
2022/02/02 13:16:26;;;;;;;9.82;5.90;;;;;;;2.27;48.09;92828.06;5018424;28;20032;-77
2022/02/02 13:18:55;;;;;;;10.55;6.63;;;;;;;2.24;47.69;92811.06;5024589;28;20087;-77
2022/02/02 13:45:24;;;;;;;15.80;6.25;;;;;;;2.36;47.56;92827.13;5019134;28;20679;-76
2022/02/02 13:48:31;;;;;;;12.27;5.78;;;;;;;2.59;47.07;92822.06;5020816;28;20041;-77
2022/02/02 14:04:21;;;;;;;34.22;15.13;;;;;;;2.92;46.08;92841.97;5022279;28;20105;-77
2022/02/02 14:31:23;;;;;;;13.68;6.00;;;;;;;2.91;45.00;92832.53;5020660;28;20044;-78
2022/02/02 14:33:44;;;;;;;10.40;6.07;;;;;;;2.61;45.56;92831.19;5012195;28;20441;-77
2022/02/02 14:36:12;;;;;;;11.70;6.90;;;;;;;2.43;45.92;92817.06;5015666;28;20029;-77
2022/02/02 14:38:53;;;;;;;16.60;7.05;;;;;;;2.69;45.94;92842.91;5021031;28;20033;-77
2022/02/02 14:46:40;;;;;;;13.70;6.93;;;;;;;2.55;45.95;92803.47;5018600;28;20036;-77
2022/02/02 14:49:14;;;;;;;10.93;7.20;;;;;;;2.45;46.33;92833.28;5023312;28;20461;-77
2022/02/02 15:31:41;;;;;;;14.55;6.25;;;;;;;1.91;47.91;92864.50;5023963;28;20072;-78
2022/02/02 15:34:11;;;;;;;10.10;6.18;;;;;;;1.74;47.39;92849.19;5021733;28;20047;-76
2022/02/02 15:39:23;;;;;;;11.05;6.10;;;;;;;1.44;48.53;92855.56;5014394;28;20551;-78
2022/02/02 15:58:27;;;;;;;16.63;7.25;;;;;;;1.63;49.07;92887.84;5021611;28;20036;-77
2022/02/02 16:03:36;;;;;;;11.55;6.63;;;;;;;1.45;49.22;92891.22;5017191;28;20516;-76
2022/02/02 16:06:24;;;;;;;14.20;7.18;;;;;;;1.46;49.56;92892.78;5021364;28;20045;-76
2022/02/02 16:08:59;;;;;;;9.55;5.82;;;;;;;1.36;49.18;92874.53;5022553;28;20564;-76
2022/02/02 16:11:28;;;;;;;16.30;8.02;;;;;;;1.38;49.89;92884.72;5020879;28;20451;-76
2022/02/02 16:13:58;;;;;;;12.02;7.20;;;;;;;0.87;49.66;92779.75;5017924;28;20037;-78
2022/02/02 16:16:44;;;;;;;12.82;6.50;;;;;;;1.66;49.47;92899.63;5015654;28;20082;-77
2022/02/02 16:19:22;;;;;;;;;;;;;;;1.74;48.45;92898.22;5021665;28;20618;-77
2022/02/02 16:37:48;;;;;;;15.25;7.63;;;;;;;1.08;49.08;92859.66;5019055;28;20587;-77
2022/02/02 16:40:18;;;;;;;14.55;7.35;;;;;;;1.55;48.91;92925.16;5016758;28;20120;-77
2022/02/02 16:45:30;;;;;;;6.03;4.78;;;;;;;1.33;48.97;92898.66;5022443;28;20052;-77
2022/02/02 16:47:55;;;;;;;6.72;4.68;;;;;;;0.95;49.62;92870.75;5021721;28;20041;-77
2022/02/02 16:50:25;;;;;;;18.08;8.18;;;;;;;1.38;49.05;92922.19;5031279;28;20036;-78
2022/02/02 16:52:55;;;;;;;19.27;9.38;;;;;;;1.46;48.87;92918.19;5018456;28;20052;-77
2022/02/02 16:58:23;;;;;;;20.88;8.45;;;;;;;1.60;48.43;92919.88;5018991;28;20146;-77
2022/02/02 17:29:37;;;;;;;10.90;7.10;;;;;;;1.14;48.87;92926.59;4962508;28;20042;-77
2022/02/02 17:31:20;;;;;;;14.20;6.03;;;;;;;1.07;49.05;92937.41;5021414;28;20025;-77
2022/02/02 17:33:49;;;;;;;13.88;6.53;;;;;;;0.93;49.17;92920.78;5014492;28;20052;-77
2022/02/02 17:44:12;;;;;;;7.90;4.63;;;;;;;1.02;49.56;92960.25;5016293;28;20475;-77
2022/02/02 18:21:00;;;;;;;3.60;2.50;;;;;;;0.20;51.07;92931.19;5019197;28;20042;-76
2022/02/02 18:34:08;;;;;;;6.93;4.30;;;;;;;0.77;51.44;93005.69;5024882;28;20052;-77
2022/02/02 18:36:46;;;;;;;6.03;4.22;;;;;;;0.83;51.51;93004.63;5017519;28;20520;-77
2022/02/02 18:52:42;;;;;;;3.83;2.72;;;;;;;0.48;53.23;93007.44;5017991;28;21381;-77
2022/02/02 20:05:45;;;;;;;6.68;4.30;;;;;;;0.30;57.32;93069.00;5016101;28;20044;-76
2022/02/02 20:10:49;;;;;;;5.22;3.25;;;;;;;0.29;57.73;93067.44;5027500;28;20067;-76
2022/02/02 20:13:16;;;;;;;3.35;3.08;;;;;;;0.03;58.44;93064.09;5025546;28;20033;-77
2022/02/02 20:15:42;;;;;;;6.22;4.40;;;;;;;0.23;58.26;93068.50;5024885;28;20128;-77
2022/02/02 20:18:08;;;;;;;9.98;4.50;;;;;;;0.24;58.33;93085.75;5021332;28;20393;-76
2022/02/02 20:20:41;;;;;;;6.97;4.35;;;;;;;0.24;58.48;93070.06;5017784;28;20045;-76
2022/02/02 20:23:07;;;;;;;3.95;3.13;;;;;;;0.36;58.18;93078.38;5020121;28;20060;-76
2022/02/02 20:25:35;;;;;;;3.50;3.13;;;;;;;0.19;58.40;93051.78;5019668;28;20182;-77
2022/02/02 20:28:05;;;;;;;6.03;4.55;;;;;;;-0.17;59.06;93046.63;5019245;28;20413;-78
2022/02/02 20:30:33;;;;;;;3.05;2.55;;;;;;;-0.40;59.39;93039.38;5025410;28;20091;-76
2022/02/02 20:32:58;;;;;;;6.70;4.15;;;;;;;-0.23;59.89;93065.97;5019566;28;20677;-77
2022/02/02 20:35:24;;;;;;;8.68;4.65;;;;;;;-0.17;59.56;93054.47;5018701;28;20456;-76
2022/02/02 20:37:52;;;;;;;8.35;5.25;;;;;;;-0.07;59.16;93059.69;5027023;28;20045;-76
2022/02/02 20:40:18;;;;;;;4.97;3.55;;;;;;;-0.07;58.99;93070.13;5011323;28;20319;-76
2022/02/02 21:14:37;;;;;;;3.10;2.60;;;;;;;-0.12;56.45;93057.09;5023886;28;20394;-76
2022/02/02 21:17:05;;;;;;;3.72;2.70;;;;;;;0.11;56.29;93047.06;5024061;28;20099;-77
2022/02/02 21:19:39;;;;;;;4.18;3.17;;;;;;;0.34;55.40;93080.50;5024398;28;20024;-77
2022/02/02 21:22:05;;;;;;;3.47;2.78;;;;;;;0.34;55.59;93062.19;5021458;28;20029;-77
2022/02/02 21:24:47;;;;;;;5.93;3.30;;;;;;;0.48;54.57;93050.09;5023032;28;20033;-78
2022/02/02 21:29:40;;;;;;;3.50;2.88;;;;;;;0.65;53.86;93057.56;5018557;28;20514;-76
2022/02/02 21:32:06;;;;;;;4.13;3.15;;;;;;;0.85;53.49;93069.78;5021933;28;20212;-77
2022/02/02 21:34:31;;;;;;;3.00;2.63;;;;;;;0.85;53.31;93070.56;5021414;28;20025;-76
2022/02/02 21:37:02;;;;;;;4.88;3.08;;;;;;;0.98;52.80;93082.28;5032146;28;20025;-78
2022/02/02 21:39:29;;;;;;;2.75;2.55;;;;;;;0.75;53.16;93063.53;5016249;28;20508;-76
2022/02/02 21:41:56;;;;;;;5.20;2.65;;;;;;;0.89;53.12;93076.06;5025663;28;20044;-76
2022/02/02 21:44:23;;;;;;;5.22;3.08;;;;;;;0.55;53.34;93045.31;5023458;28;20972;-76
2022/02/02 21:46:49;;;;;;;4.35;2.75;;;;;;;0.75;53.73;93102.81;5023910;28;20527;-76
2022/02/02 21:49:20;;;;;;;4.47;3.40;;;;;;;0.68;54.16;93110.19;5023788;28;20379;-77
2022/02/02 21:51:56;;;;;;;2.78;2.20;;;;;;;0.64;54.63;93097.91;5037255;28;20032;-77
2022/02/02 21:54:21;;;;;;;4.93;3.97;;;;;;;0.38;55.19;93073.66;5026293;28;20120;-77
2022/02/02 21:56:47;;;;;;;4.03;3.13;;;;;;;0.18;55.67;93066.69;5019797;28;20450;-76
2022/02/02 21:59:12;;;;;;;4.32;3.10;;;;;;;0.20;56.77;93095.19;5026389;28;20046;-76
2022/02/02 22:01:38;;;;;;;4.45;3.97;;;;;;;0.03;57.33;93069.34;5022377;28;20040;-76
2022/02/02 22:04:03;;;;;;;5.70;4.07;;;;;;;-0.05;57.61;93069.09;5024825;28;20064;-77
2022/02/02 22:06:29;;;;;;;8.27;4.15;;;;;;;-0.10;58.07;93049.78;5019223;28;20038;-77
2022/02/02 22:08:55;;;;;;;4.80;3.60;;;;;;;-0.03;58.75;93085.28;5025378;28;20551;-77
2022/02/02 22:11:24;;;;;;;2.92;2.65;;;;;;;-0.14;58.80;93067.00;5019947;28;20041;-77
2022/02/02 22:14:14;;;;;;;5.15;3.45;;;;;;;-0.17;59.41;93072.00;5020843;28;20602;-76
2022/02/02 22:16:39;;;;;;;3.55;3.20;;;;;;;-0.08;59.51;93105.16;5024085;28;20048;-76
2022/02/02 22:19:04;;;;;;;4.00;3.22;;;;;;;-0.04;59.85;93109.88;5027895;28;20021;-77
2022/02/02 22:21:30;;;;;;;3.85;2.90;;;;;;;-0.19;59.92;93093.16;5020991;28;20386;-76
2022/02/02 22:23:56;;;;;;;5.18;4.07;;;;;;;-0.47;60.70;93062.34;5010565;28;20124;-77
2022/02/02 22:26:22;;;;;;;6.10;3.83;;;;;;;-0.33;60.75;93070.44;5019956;28;20067;-76
2022/02/02 22:28:47;;;;;;;5.82;2.85;;;;;;;-0.37;60.93;93056.34;5019078;28;20033;-76
2022/02/02 22:31:13;;;;;;;4.35;3.05;;;;;;;-0.55;61.15;93047.22;5025504;28;20363;-77
2022/02/02 22:33:38;;;;;;;4.75;3.45;;;;;;;-0.15;61.55;93112.50;5038697;28;20029;-77
2022/02/02 22:36:04;;;;;;;4.95;3.60;;;;;;;-0.32;62.24;93106.75;5021578;28;20095;-77
2022/02/02 22:38:35;;;;;;;5.38;4.00;;;;;;;-0.56;63.26;93105.72;5014882;28;20041;-77
2022/02/02 22:41:01;;;;;;;4.15;3.83;;;;;;;-0.51;64.32;93122.19;5019651;28;20114;-76
2022/02/02 22:43:29;;;;;;;3.92;3.35;;;;;;;-0.51;64.84;93124.00;5019302;28;20489;-77
2022/02/02 22:45:55;;;;;;;9.10;3.78;;;;;;;-0.56;64.89;93108.34;5019906;28;20025;-77
2022/02/02 22:48:24;;;;;;;4.50;2.85;;;;;;;-0.52;65.60;93133.66;5020308;28;20709;-76
2022/02/02 22:50:51;;;;;;;9.40;3.83;;;;;;;-0.59;66.15;93134.97;5007949;28;20060;-77
2022/02/02 22:53:23;;;;;;;5.18;3.65;;;;;;;-0.71;66.35;93100.50;5028487;28;20034;-76
2022/02/02 22:55:51;;;;;;;4.25;3.42;;;;;;;-0.55;66.98;93136.03;5020395;28;20369;-77
2022/02/02 22:58:16;;;;;;;7.15;4.03;;;;;;;-0.58;67.35;93137.31;5022807;28;20021;-77
2022/02/02 23:00:42;;;;;;;6.03;4.47;;;;;;;-0.92;67.62;93080.66;5018396;28;20094;-76
2022/02/02 23:03:15;;;;;;;7.88;5.05;;;;;;;-0.53;67.43;93111.19;5018167;28;20095;-76
2022/02/02 23:05:44;;;;;;;7.28;4.95;;;;;;;-0.37;67.08;93119.81;5022792;28;20045;-77